createdAt,value
2019-03-18T00:00:38.415Z,1002.11
2019-03-18T00:01:38.403Z,1002.11
2019-03-18T00:02:38.385Z,1002.11
2019-03-18T00:03:38.381Z,1002.08
2019-03-18T00:04:38.372Z,1002.13
2019-03-18T00:05:39.286Z,1002.11
2019-03-18T00:06:38.638Z,1002.17
2019-03-18T00:07:38.342Z,1002.19
2019-03-18T00:08:39.216Z,1002.21
2019-03-18T00:09:38.322Z,1002.25
2019-03-18T00:10:38.585Z,1002.29
2019-03-18T00:11:38.430Z,1002.25
2019-03-18T00:12:38.295Z,1002.28
2019-03-18T00:13:38.290Z,1002.22
2019-03-18T00:14:38.278Z,1002.21
2019-03-18T00:15:38.269Z,1002.24
2019-03-18T00:16:38.261Z,1002.17
2019-03-18T00:17:38.252Z,1002.21
2019-03-18T00:18:38.244Z,1002.22
2019-03-18T00:19:38.240Z,1002.23
2019-03-18T00:20:38.225Z,1002.23
2019-03-18T00:21:38.216Z,1002.23
2019-03-18T00:22:38.206Z,1002.25
2019-03-18T00:23:38.198Z,1002.20
2019-03-18T00:24:38.185Z,1002.20
2019-03-18T00:25:38.178Z,1002.20
2019-03-18T00:26:38.168Z,1002.17
2019-03-18T00:27:38.159Z,1002.18
2019-03-18T00:28:38.151Z,1002.12
2019-03-18T00:29:38.142Z,1002.14
2019-03-18T00:30:38.136Z,1002.12
2019-03-18T00:31:38.134Z,1002.09
2019-03-18T00:32:38.118Z,1002.10
2019-03-18T00:33:38.106Z,1002.10
2019-03-18T00:34:38.112Z,1002.10
2019-03-18T00:35:38.086Z,1002.08
2019-03-18T00:36:38.084Z,1002.12
2019-03-18T00:37:38.069Z,1002.11
2019-03-18T00:38:38.059Z,1002.10
2019-03-18T00:39:38.050Z,1002.15
2019-03-18T00:40:38.043Z,1002.10
2019-03-18T00:41:38.034Z,1002.08
2019-03-18T00:42:38.023Z,1002.25
2019-03-18T00:43:38.016Z,1002.18
2019-03-18T00:44:38.006Z,1002.20
2019-03-18T00:45:40.292Z,1002.19
2019-03-18T00:46:37.987Z,1002.22
2019-03-18T00:47:37.979Z,1002.22
2019-03-18T00:48:37.970Z,1002.20
2019-03-18T00:49:37.964Z,1002.22
2019-03-18T00:50:37.953Z,1002.20
2019-03-18T00:51:37.947Z,1002.24
2019-03-18T00:52:37.932Z,1002.25
2019-03-18T00:53:37.922Z,1002.25
2019-03-18T00:54:37.911Z,1002.28
2019-03-18T00:55:37.906Z,1002.28
2019-03-18T00:56:37.895Z,1002.35
2019-03-18T00:57:37.884Z,1002.31
2019-03-18T00:58:37.879Z,1002.40
2019-03-18T00:59:37.867Z,1002.36
2019-03-18T01:00:37.856Z,1002.38
2019-03-18T01:01:37.851Z,1002.42
2019-03-18T01:02:37.838Z,1002.38
2019-03-18T01:03:37.829Z,1002.40
2019-03-18T01:04:37.824Z,1002.41
2019-03-18T01:05:37.811Z,1002.38
2019-03-18T01:06:37.804Z,1002.42
2019-03-18T01:07:37.792Z,1002.41
2019-03-18T01:08:37.784Z,1002.44
2019-03-18T01:09:37.775Z,1002.44
2019-03-18T01:10:37.767Z,1002.46
2019-03-18T01:11:37.762Z,1002.49
2019-03-18T01:12:37.746Z,1002.48
2019-03-18T01:13:37.742Z,1002.49
2019-03-18T01:14:37.731Z,1002.47
2019-03-18T01:15:37.719Z,1002.41
2019-03-18T01:16:37.724Z,1002.44
2019-03-18T01:17:37.708Z,1002.40
2019-03-18T01:18:37.696Z,1002.43
2019-03-18T01:19:37.683Z,1002.43
2019-03-18T01:20:37.673Z,1002.43
2019-03-18T01:21:37.667Z,1002.40
2019-03-18T01:22:37.655Z,1002.42
2019-03-18T01:23:38.299Z,1002.42
2019-03-18T01:24:37.641Z,1002.41
2019-03-18T01:25:37.626Z,1002.39
2019-03-18T01:26:37.616Z,1002.47
2019-03-18T01:27:37.609Z,1002.47
2019-03-18T01:28:37.597Z,1002.51
2019-03-18T01:29:37.595Z,1002.50
2019-03-18T01:30:37.581Z,1002.52
2019-03-18T01:31:37.571Z,1002.54
2019-03-18T01:32:37.562Z,1002.59
2019-03-18T01:33:37.558Z,1002.50
2019-03-18T01:34:37.546Z,1002.51
2019-03-18T01:35:39.807Z,1002.49
2019-03-18T01:36:37.527Z,1002.51
2019-03-18T01:37:37.517Z,1002.51
2019-03-18T01:38:37.509Z,1002.44
2019-03-18T01:39:37.506Z,1002.46
2019-03-18T01:40:37.489Z,1002.50
2019-03-18T01:41:37.478Z,1002.43
2019-03-18T01:42:37.470Z,1002.40
2019-03-18T01:43:37.461Z,1002.42
2019-03-18T01:44:37.452Z,1002.49
2019-03-18T01:45:40.874Z,1002.46
2019-03-18T01:46:37.447Z,1002.44
2019-03-18T01:47:37.423Z,1002.45
2019-03-18T01:48:37.412Z,1002.39
2019-03-18T01:49:37.404Z,1002.32
2019-03-18T01:50:37.398Z,1002.39
2019-03-18T01:51:37.387Z,1002.36
2019-03-18T01:52:37.376Z,1002.41
2019-03-18T01:53:37.367Z,1002.35
2019-03-18T01:54:37.363Z,1002.39
2019-03-18T01:55:37.351Z,1002.32
2019-03-18T01:56:37.340Z,1002.38
2019-03-18T01:57:37.330Z,1002.37
2019-03-18T01:58:37.321Z,1002.31
2019-03-18T01:59:37.312Z,1002.31
2019-03-18T02:00:37.301Z,1002.29
2019-03-18T02:01:37.293Z,1002.30
2019-03-18T02:02:37.287Z,1002.38
2019-03-18T02:03:37.276Z,1002.35
2019-03-18T02:04:37.264Z,1002.36
2019-03-18T02:05:37.253Z,1002.39
2019-03-18T02:06:37.242Z,1002.37
2019-03-18T02:07:37.238Z,1002.42
2019-03-18T02:08:37.230Z,1002.37
2019-03-18T02:09:37.217Z,1002.30
2019-03-18T02:10:37.210Z,1002.35
2019-03-18T02:11:37.199Z,1002.36
2019-03-18T02:12:37.228Z,1002.34
2019-03-18T02:13:37.181Z,1002.40
2019-03-18T02:14:37.170Z,1002.27
2019-03-18T02:15:37.165Z,1002.31
2019-03-18T02:16:37.150Z,1002.30
2019-03-18T02:17:37.141Z,1002.37
2019-03-18T02:18:37.132Z,1002.32
2019-03-18T02:19:37.125Z,1002.38
2019-03-18T02:20:37.117Z,1002.35
2019-03-18T02:21:37.104Z,1002.32
2019-03-18T02:22:37.095Z,1002.32
2019-03-18T02:23:37.086Z,1002.34
2019-03-18T02:24:37.075Z,1002.35
2019-03-18T02:25:37.070Z,1002.36
2019-03-18T02:26:37.057Z,1002.35
2019-03-18T02:27:37.050Z,1002.43
2019-03-18T02:28:37.039Z,1002.40
2019-03-18T02:29:37.027Z,1002.42
2019-03-18T02:30:37.019Z,1002.41
2019-03-18T02:31:37.014Z,1002.44
2019-03-18T02:32:37.009Z,1002.48
2019-03-18T02:33:37.016Z,1002.45
2019-03-18T02:34:37.058Z,1002.43
2019-03-18T02:35:36.972Z,1002.39
2019-03-18T02:36:36.965Z,1002.40
2019-03-18T02:37:36.953Z,1002.41
2019-03-18T02:38:36.949Z,1002.43
2019-03-18T02:39:36.937Z,1002.37
2019-03-18T02:40:36.922Z,1002.41
2019-03-18T02:41:36.916Z,1002.43
2019-03-18T02:42:36.925Z,1002.42
2019-03-18T02:43:36.922Z,1002.39
2019-03-18T02:44:36.889Z,1002.40
2019-03-18T02:45:36.878Z,1002.36
2019-03-18T02:46:36.870Z,1002.30
2019-03-18T02:47:36.858Z,1002.42
2019-03-18T02:48:36.846Z,1002.44
2019-03-18T02:49:36.839Z,1002.40
2019-03-18T02:50:36.829Z,1002.44
2019-03-18T02:51:36.818Z,1002.41
2019-03-18T02:52:36.812Z,1002.39
2019-03-18T02:53:36.830Z,1002.40
2019-03-18T02:54:36.792Z,1002.36
2019-03-18T02:55:36.784Z,1002.32
2019-03-18T02:56:36.775Z,1002.35
2019-03-18T02:57:36.761Z,1002.33
2019-03-18T02:58:36.759Z,1002.29
2019-03-18T02:59:36.748Z,1002.33
2019-03-18T03:00:36.732Z,1002.31
2019-03-18T03:01:36.726Z,1002.33
2019-03-18T03:02:36.715Z,1002.31
2019-03-18T03:03:37.336Z,1002.35
2019-03-18T03:04:36.693Z,1002.36
2019-03-18T03:05:36.692Z,1002.32
2019-03-18T03:06:36.675Z,1002.38
2019-03-18T03:07:36.668Z,1002.37
2019-03-18T03:08:36.657Z,1002.26
2019-03-18T03:09:36.649Z,1002.37
2019-03-18T03:10:36.637Z,1002.34
2019-03-18T03:11:36.631Z,1002.36
2019-03-18T03:12:36.653Z,1002.43
2019-03-18T03:13:36.611Z,1002.42
2019-03-18T03:14:36.600Z,1002.38
2019-03-18T03:15:36.612Z,1002.40
2019-03-18T03:16:36.579Z,1002.48
2019-03-18T03:17:36.569Z,1002.46
2019-03-18T03:18:36.562Z,1002.39
2019-03-18T03:19:36.552Z,1002.42
2019-03-18T03:20:36.558Z,1002.44
2019-03-18T03:21:36.530Z,1002.45
2019-03-18T03:22:36.529Z,1002.47
2019-03-18T03:23:36.512Z,1002.53
2019-03-18T03:24:36.517Z,1002.45
2019-03-18T03:25:36.495Z,1002.43
2019-03-18T03:26:36.493Z,1002.46
2019-03-18T03:27:36.480Z,1002.45
2019-03-18T03:28:36.465Z,1002.46
2019-03-18T03:29:36.456Z,1002.40
2019-03-18T03:30:36.448Z,1002.46
2019-03-18T03:31:36.442Z,1002.48
2019-03-18T03:32:36.425Z,1002.50
2019-03-18T03:33:36.430Z,1002.50
2019-03-18T03:34:36.425Z,1002.49
2019-03-18T03:35:36.401Z,1002.53
2019-03-18T03:36:36.383Z,1002.50
2019-03-18T03:37:36.376Z,1002.47
2019-03-18T03:38:36.369Z,1002.52
2019-03-18T03:39:36.356Z,1002.53
2019-03-18T03:40:36.345Z,1002.51
2019-03-18T03:41:36.341Z,1002.54
2019-03-18T03:42:36.328Z,1002.58
2019-03-18T03:43:36.316Z,1002.56
2019-03-18T03:44:36.309Z,1002.55
2019-03-18T03:45:36.300Z,1002.59
2019-03-18T03:46:43.000Z,1002.62
2019-03-18T03:47:36.283Z,1002.66
2019-03-18T03:48:36.276Z,1002.60
2019-03-18T03:49:36.261Z,1002.55
2019-03-18T03:50:36.250Z,1002.63
2019-03-18T03:51:36.241Z,1002.61
2019-03-18T03:52:36.225Z,1002.61
2019-03-18T03:53:36.222Z,1002.62
2019-03-18T03:54:36.214Z,1002.66
2019-03-18T03:55:36.204Z,1002.71
2019-03-18T03:56:36.194Z,1002.73
2019-03-18T03:57:36.185Z,1002.73
2019-03-18T03:58:36.179Z,1002.72
2019-03-18T03:59:36.172Z,1002.66
2019-03-18T04:00:36.153Z,1002.70
2019-03-18T04:01:36.145Z,1002.67
2019-03-18T04:02:36.166Z,1002.69
2019-03-18T04:03:38.733Z,1002.73
2019-03-18T04:04:36.114Z,1002.74
2019-03-18T04:05:36.107Z,1002.78
2019-03-18T04:06:36.097Z,1002.77
2019-03-18T04:07:36.085Z,1002.81
2019-03-18T04:08:36.073Z,1002.80
2019-03-18T04:09:36.105Z,1002.80
2019-03-18T04:10:36.059Z,1002.80
2019-03-18T04:11:36.050Z,1002.78
2019-03-18T04:12:36.043Z,1002.77
2019-03-18T04:13:36.027Z,1002.78
2019-03-18T04:14:36.018Z,1002.86
2019-03-18T04:15:36.005Z,1002.85
2019-03-18T04:16:36.001Z,1002.85
2019-03-18T04:17:35.997Z,1002.87
2019-03-18T04:18:35.975Z,1002.86
2019-03-18T04:19:35.968Z,1002.82
2019-03-18T04:20:35.956Z,1002.84
2019-03-18T04:21:35.994Z,1002.80
2019-03-18T04:22:35.945Z,1002.88
2019-03-18T04:23:35.933Z,1002.94
2019-03-18T04:24:35.925Z,1002.87
2019-03-18T04:25:35.915Z,1002.90
2019-03-18T04:26:35.901Z,1002.89
2019-03-18T04:27:35.892Z,1002.90
2019-03-18T04:28:35.882Z,1002.86
2019-03-18T04:29:35.870Z,1002.88
2019-03-18T04:30:35.867Z,1002.84
2019-03-18T04:31:35.849Z,1002.84
2019-03-18T04:32:35.841Z,1002.82
2019-03-18T04:33:38.949Z,1002.86
2019-03-18T04:34:35.820Z,1002.88
2019-03-18T04:35:35.811Z,1002.87
2019-03-18T04:36:35.842Z,1002.89
2019-03-18T04:37:35.794Z,1002.85
2019-03-18T04:38:35.782Z,1002.90
2019-03-18T04:39:35.772Z,1002.88
2019-03-18T04:40:35.761Z,1003.03
2019-03-18T04:41:35.759Z,1002.94
2019-03-18T04:42:35.745Z,1002.99
2019-03-18T04:43:35.735Z,1003.07
2019-03-18T04:44:35.724Z,1003.00
2019-03-18T04:45:35.715Z,1003.02
2019-03-18T04:46:35.706Z,1003.05
2019-03-18T04:47:35.695Z,1003.03
2019-03-18T04:48:35.686Z,1002.99
2019-03-18T04:49:35.677Z,1003.06
2019-03-18T04:50:35.666Z,1003.07
2019-03-18T04:51:35.655Z,1003.02
2019-03-18T04:52:35.645Z,1002.99
2019-03-18T04:53:35.637Z,1003.08
2019-03-18T04:54:35.629Z,1003.09
2019-03-18T04:55:35.621Z,1003.04
2019-03-18T04:56:35.607Z,1003.14
2019-03-18T04:57:35.600Z,1003.15
2019-03-18T04:58:35.591Z,1003.16
2019-03-18T04:59:35.580Z,1003.18
2019-03-18T05:00:35.570Z,1003.17
2019-03-18T05:01:35.559Z,1003.22
2019-03-18T05:02:35.550Z,1003.18
2019-03-18T05:03:35.542Z,1003.19
2019-03-18T05:04:35.532Z,1003.19
2019-03-18T05:05:35.522Z,1003.16
2019-03-18T05:06:35.510Z,1003.16
2019-03-18T05:07:35.504Z,1003.16
2019-03-18T05:08:35.495Z,1003.19
2019-03-18T05:09:35.488Z,1003.28
2019-03-18T05:10:35.477Z,1003.28
2019-03-18T05:11:35.471Z,1003.33
2019-03-18T05:12:35.459Z,1003.30
2019-03-18T05:13:35.503Z,1003.32
2019-03-18T05:14:35.438Z,1003.26
2019-03-18T05:15:35.426Z,1003.33
2019-03-18T05:16:35.418Z,1003.32
2019-03-18T05:17:35.408Z,1003.37
2019-03-18T05:18:36.663Z,1003.41
2019-03-18T05:19:35.389Z,1003.41
2019-03-18T05:20:35.380Z,1003.43
2019-03-18T05:21:35.379Z,1003.40
2019-03-18T05:22:35.366Z,1003.46
2019-03-18T05:23:35.351Z,1003.47
2019-03-18T05:24:35.343Z,1003.46
2019-03-18T05:25:35.333Z,1003.46
2019-03-18T05:26:35.325Z,1003.44
2019-03-18T05:27:35.313Z,1003.47
2019-03-18T05:28:35.305Z,1003.50
2019-03-18T05:29:35.296Z,1003.49
2019-03-18T05:30:35.287Z,1003.54
2019-03-18T05:31:35.280Z,1003.60
2019-03-18T05:32:35.273Z,1003.61
2019-03-18T05:33:35.257Z,1003.58
2019-03-18T05:34:35.248Z,1003.60
2019-03-18T05:35:35.236Z,1003.64
2019-03-18T05:36:35.230Z,1003.68
2019-03-18T05:37:35.245Z,1003.68
2019-03-18T05:38:35.210Z,1003.70
2019-03-18T05:39:35.206Z,1003.74
2019-03-18T05:40:35.191Z,1003.71
2019-03-18T05:41:35.182Z,1003.72
2019-03-18T05:42:35.171Z,1003.68
2019-03-18T05:43:35.162Z,1003.74
2019-03-18T05:44:35.157Z,1003.71
2019-03-18T05:45:35.144Z,1003.65
2019-03-18T05:46:35.136Z,1003.69
2019-03-18T05:47:39.503Z,1003.69
2019-03-18T05:48:35.116Z,1003.70
2019-03-18T05:49:35.108Z,1003.76
2019-03-18T05:50:35.099Z,1003.73
2019-03-18T05:51:35.089Z,1003.69
2019-03-18T05:52:35.086Z,1003.69
2019-03-18T05:53:35.070Z,1003.65
2019-03-18T05:54:35.059Z,1003.59
2019-03-18T05:55:35.050Z,1003.71
2019-03-18T05:56:35.041Z,1003.78
2019-03-18T05:57:35.035Z,1003.74
2019-03-18T05:58:35.019Z,1003.77
2019-03-18T05:59:35.073Z,1003.76
2019-03-18T06:00:35.005Z,1003.74
2019-03-18T06:01:35.000Z,1003.74
2019-03-18T06:02:34.987Z,1003.79
2019-03-18T06:03:34.978Z,1003.88
2019-03-18T06:04:34.983Z,1003.87
2019-03-18T06:05:34.965Z,1003.81
2019-03-18T06:06:34.950Z,1003.82
2019-03-18T06:07:34.952Z,1003.86
2019-03-18T06:08:34.936Z,1003.78
2019-03-18T06:09:34.929Z,1003.85
2019-03-18T06:10:34.914Z,1003.83
2019-03-18T06:11:34.904Z,1003.81
2019-03-18T06:12:34.896Z,1003.80
2019-03-18T06:13:34.886Z,1003.82
2019-03-18T06:14:34.882Z,1003.92
2019-03-18T06:15:34.871Z,1003.87
2019-03-18T06:16:34.857Z,1003.94
2019-03-18T06:17:34.854Z,1003.94
2019-03-18T06:18:34.843Z,1003.92
2019-03-18T06:19:34.834Z,1003.92
2019-03-18T06:20:34.822Z,1003.90
2019-03-18T06:21:34.813Z,1003.94
2019-03-18T06:22:34.802Z,1003.93
2019-03-18T06:23:34.868Z,1003.90
2019-03-18T06:24:34.794Z,1003.94
2019-03-18T06:25:34.778Z,1003.87
2019-03-18T06:26:34.766Z,1003.92
2019-03-18T06:27:34.761Z,1003.85
2019-03-18T06:28:34.751Z,1003.86
2019-03-18T06:29:34.756Z,1003.90
2019-03-18T06:30:34.761Z,1003.95
2019-03-18T06:31:34.720Z,1003.95
2019-03-18T06:32:34.711Z,1003.92
2019-03-18T06:33:34.704Z,1003.92
2019-03-18T06:34:34.694Z,1003.94
2019-03-18T06:35:34.688Z,1003.98
2019-03-18T06:36:34.679Z,1003.89
2019-03-18T06:37:34.709Z,1003.97
2019-03-18T06:38:34.659Z,1003.90
2019-03-18T06:39:34.650Z,1003.93
2019-03-18T06:40:34.642Z,1003.90
2019-03-18T06:41:34.640Z,1003.95
2019-03-18T06:42:34.624Z,1003.93
2019-03-18T06:43:34.616Z,1003.94
2019-03-18T06:44:34.645Z,1003.96
2019-03-18T06:45:34.597Z,1003.94
2019-03-18T06:46:34.591Z,1004.00
2019-03-18T06:47:34.581Z,1003.99
2019-03-18T06:48:34.573Z,1003.98
2019-03-18T06:49:34.565Z,1004.05
2019-03-18T06:50:34.551Z,1004.02
2019-03-18T06:51:34.551Z,1004.14
2019-03-18T06:52:34.535Z,1004.12
2019-03-18T06:53:34.528Z,1004.11
2019-03-18T06:54:34.523Z,1004.13
2019-03-18T06:55:34.510Z,1004.15
2019-03-18T06:56:34.500Z,1004.16
2019-03-18T06:57:34.491Z,1004.17
2019-03-18T06:58:34.485Z,1004.12
2019-03-18T06:59:34.475Z,1004.16
2019-03-18T07:00:34.468Z,1004.23
2019-03-18T07:01:34.453Z,1004.20
2019-03-18T07:02:34.447Z,1004.29
2019-03-18T07:03:34.440Z,1004.33
2019-03-18T07:04:34.431Z,1004.27
2019-03-18T07:05:34.415Z,1004.27
2019-03-18T07:06:34.415Z,1004.31
2019-03-18T07:07:34.405Z,1004.28
2019-03-18T07:08:34.397Z,1004.37
2019-03-18T07:09:34.387Z,1004.37
2019-03-18T07:10:34.380Z,1004.42
2019-03-18T07:11:34.372Z,1004.41
2019-03-18T07:12:34.356Z,1004.49
2019-03-18T07:13:34.366Z,1004.51
2019-03-18T07:14:34.419Z,1004.43
2019-03-18T07:15:34.335Z,1004.38
2019-03-18T07:16:34.332Z,1004.50
2019-03-18T07:17:34.319Z,1004.51
2019-03-18T07:18:34.312Z,1004.49
2019-03-18T07:19:34.315Z,1004.55
2019-03-18T07:20:34.300Z,1004.62
2019-03-18T07:21:34.293Z,1004.57
2019-03-18T07:22:34.277Z,1004.60
2019-03-18T07:23:34.262Z,1004.62
2019-03-18T07:24:34.798Z,1004.64
2019-03-18T07:25:34.251Z,1004.69
2019-03-18T07:26:34.250Z,1004.65
2019-03-18T07:27:34.245Z,1004.63
2019-03-18T07:28:34.231Z,1004.63
2019-03-18T07:29:34.213Z,1004.64
2019-03-18T07:30:34.208Z,1004.66
2019-03-18T07:31:34.189Z,1004.62
2019-03-18T07:32:34.194Z,1004.64
2019-03-18T07:33:34.187Z,1004.64
2019-03-18T07:34:34.181Z,1004.52
2019-03-18T07:35:34.167Z,1004.59
2019-03-18T07:36:34.157Z,1004.62
2019-03-18T07:37:34.150Z,1004.64
2019-03-18T07:38:34.145Z,1004.64
2019-03-18T07:39:34.135Z,1004.47
2019-03-18T07:40:34.131Z,1004.69
2019-03-18T07:41:34.126Z,1004.61
2019-03-18T07:42:34.110Z,1004.67
2019-03-18T07:43:34.098Z,1004.73
2019-03-18T07:44:34.090Z,1004.73
2019-03-18T07:45:34.083Z,1004.76
2019-03-18T07:46:34.073Z,1004.76
2019-03-18T07:47:34.065Z,1004.82
2019-03-18T07:48:34.054Z,1004.75
2019-03-18T07:49:34.045Z,1004.87
2019-03-18T07:50:34.039Z,1004.87
2019-03-18T07:51:34.032Z,1004.82
2019-03-18T07:52:34.017Z,1004.81
2019-03-18T07:53:34.021Z,1004.87
2019-03-18T07:54:34.026Z,1004.82
2019-03-18T07:55:33.993Z,1004.91
2019-03-18T07:56:33.986Z,1004.90
2019-03-18T07:57:33.979Z,1004.87
2019-03-18T07:58:33.972Z,1004.99
2019-03-18T07:59:33.962Z,1004.94
2019-03-18T08:00:33.956Z,1005.00
2019-03-18T08:01:33.950Z,1005.03
2019-03-18T08:02:33.941Z,1005.01
2019-03-18T08:03:36.416Z,1005.07
2019-03-18T08:04:37.785Z,1005.05
2019-03-18T08:05:33.912Z,1004.99
2019-03-18T08:06:33.904Z,1004.97
2019-03-18T08:07:33.898Z,1004.93
2019-03-18T08:08:33.941Z,1004.90
2019-03-18T08:09:33.880Z,1004.85
2019-03-18T08:10:33.869Z,1004.88
2019-03-18T08:11:33.864Z,1004.86
2019-03-18T08:12:33.855Z,1004.84
2019-03-18T08:13:33.844Z,1004.87
2019-03-18T08:14:33.838Z,1004.81
2019-03-18T08:15:33.829Z,1004.85
2019-03-18T08:16:33.820Z,1004.86
2019-03-18T08:17:33.812Z,1004.71
2019-03-18T08:18:42.640Z,1004.75
2019-03-18T08:19:33.798Z,1004.86
2019-03-18T08:20:33.787Z,1004.82
2019-03-18T08:21:33.780Z,1004.89
2019-03-18T08:22:33.772Z,1004.84
2019-03-18T08:23:33.765Z,1004.82
2019-03-18T08:24:33.754Z,1004.81
2019-03-18T08:25:33.747Z,1004.76
2019-03-18T08:26:33.740Z,1004.93
2019-03-18T08:27:33.735Z,1004.88
2019-03-18T08:28:33.724Z,1004.87
2019-03-18T08:29:33.718Z,1004.83
2019-03-18T08:30:33.711Z,1004.86
2019-03-18T08:31:33.703Z,1004.89
2019-03-18T08:32:33.696Z,1004.87
2019-03-18T08:33:33.686Z,1004.92
2019-03-18T08:34:33.679Z,1004.84
2019-03-18T08:35:33.674Z,1004.89
2019-03-18T08:36:33.666Z,1004.88
2019-03-18T08:37:33.655Z,1004.96
2019-03-18T08:38:33.650Z,1004.96
2019-03-18T08:39:33.642Z,1005.14
2019-03-18T08:40:33.640Z,1004.97
2019-03-18T08:41:33.629Z,1005.02
2019-03-18T08:42:33.623Z,1004.90
2019-03-18T08:43:33.615Z,1005.07
2019-03-18T08:44:33.609Z,1004.97
2019-03-18T08:45:33.598Z,1005.00
2019-03-18T08:46:33.598Z,1005.00
2019-03-18T08:47:33.588Z,1005.08
2019-03-18T08:48:33.576Z,1005.06
2019-03-18T08:49:33.568Z,1005.17
2019-03-18T08:50:33.561Z,1005.13
2019-03-18T08:51:33.560Z,1005.16
2019-03-18T08:52:33.552Z,1005.25
2019-03-18T08:53:33.539Z,1005.23
2019-03-18T08:54:33.532Z,1005.21
2019-03-18T08:55:33.528Z,1005.25
2019-03-18T08:56:33.526Z,1005.31
2019-03-18T08:57:33.511Z,1005.36
2019-03-18T08:58:33.502Z,1005.38
2019-03-18T08:59:33.497Z,1005.38
2019-03-18T09:00:33.488Z,1005.41
2019-03-18T09:01:33.481Z,1005.34
2019-03-18T09:02:33.475Z,1005.44
2019-03-18T09:03:33.466Z,1005.37
2019-03-18T09:04:33.458Z,1005.42
2019-03-18T09:05:33.449Z,1005.49
2019-03-18T09:06:33.444Z,1005.42
2019-03-18T09:07:33.435Z,1005.41
2019-03-18T09:08:33.428Z,1005.43
2019-03-18T09:09:33.419Z,1005.42
2019-03-18T09:10:33.411Z,1005.50
2019-03-18T09:11:33.405Z,1005.43
2019-03-18T09:12:33.399Z,1005.46
2019-03-18T09:13:33.387Z,1005.53
2019-03-18T09:14:33.381Z,1005.51
2019-03-18T09:15:33.375Z,1005.49
2019-03-18T09:16:33.389Z,1005.49
2019-03-18T09:17:33.362Z,1005.53
2019-03-18T09:18:33.347Z,1005.52
2019-03-18T09:19:33.343Z,1005.51
2019-03-18T09:20:33.334Z,1005.48
2019-03-18T09:21:33.330Z,1005.48
2019-03-18T09:22:33.321Z,1005.35
2019-03-18T09:23:33.327Z,1005.50
2019-03-18T09:24:33.303Z,1005.50
2019-03-18T09:25:33.297Z,1005.54
2019-03-18T09:26:33.294Z,1005.56
2019-03-18T09:27:33.325Z,1005.48
2019-03-18T09:28:33.276Z,1005.47
2019-03-18T09:29:33.267Z,1005.50
2019-03-18T09:30:33.261Z,1005.53
2019-03-18T09:31:33.254Z,1005.56
2019-03-18T09:32:33.246Z,1005.55
2019-03-18T09:33:33.239Z,1005.63
2019-03-18T09:34:33.233Z,1005.55
2019-03-18T09:35:33.227Z,1005.55
2019-03-18T09:36:33.220Z,1005.59
2019-03-18T09:37:33.210Z,1005.51
2019-03-18T09:38:33.205Z,1005.48
2019-03-18T09:39:33.196Z,1005.46
2019-03-18T09:40:33.189Z,1005.51
2019-03-18T09:41:33.181Z,1005.56
2019-03-18T09:42:33.180Z,1005.53
2019-03-18T09:43:33.216Z,1005.58
2019-03-18T09:44:33.163Z,1005.64
2019-03-18T09:45:33.155Z,1005.45
2019-03-18T09:46:33.149Z,1005.57
2019-03-18T09:47:33.231Z,1005.52
2019-03-18T09:48:33.131Z,1005.54
2019-03-18T09:49:33.123Z,1005.55
2019-03-18T09:50:33.118Z,1005.55
2019-03-18T09:51:33.112Z,1005.52
2019-03-18T09:52:33.102Z,1005.54
2019-03-18T09:53:33.093Z,1005.56
2019-03-18T09:54:33.090Z,1005.53
2019-03-18T09:55:33.095Z,1005.65
2019-03-18T09:56:33.073Z,1005.58
2019-03-18T09:57:33.069Z,1005.57
2019-03-18T09:58:33.061Z,1005.65
2019-03-18T09:59:33.052Z,1005.63
2019-03-18T10:00:33.044Z,1005.59
2019-03-18T10:01:33.040Z,1005.64
2019-03-18T10:02:33.027Z,1005.73
2019-03-18T10:03:33.023Z,1005.74
2019-03-18T10:04:33.013Z,1005.72
2019-03-18T10:05:33.013Z,1005.75
2019-03-18T10:06:33.001Z,1005.73
2019-03-18T10:07:32.996Z,1005.79
2019-03-18T10:08:32.989Z,1005.84
2019-03-18T10:09:32.979Z,1005.89
2019-03-18T10:10:32.974Z,1005.90
2019-03-18T10:11:32.966Z,1005.91
2019-03-18T10:12:32.971Z,1005.81
2019-03-18T10:13:32.951Z,1005.95
2019-03-18T10:14:32.945Z,1005.89
2019-03-18T10:15:32.940Z,1005.99
2019-03-18T10:16:32.927Z,1006.06
2019-03-18T10:17:32.920Z,1005.93
2019-03-18T10:18:32.958Z,1005.99
2019-03-18T10:19:33.859Z,1006.06
2019-03-18T10:20:32.900Z,1006.04
2019-03-18T10:21:32.890Z,1005.93
2019-03-18T10:22:35.798Z,1006.03
2019-03-18T10:23:32.880Z,1006.10
2019-03-18T10:24:32.875Z,1006.10
2019-03-18T10:25:32.863Z,1006.16
2019-03-18T10:26:32.857Z,1006.16
2019-03-18T10:27:32.850Z,1006.26
2019-03-18T10:28:32.848Z,1006.21
2019-03-18T10:29:32.837Z,1006.21
2019-03-18T10:30:34.001Z,1006.24
2019-03-18T10:31:32.820Z,1006.28
2019-03-18T10:32:32.814Z,1006.29
2019-03-18T10:33:32.806Z,1006.27
2019-03-18T10:34:32.801Z,1006.27
2019-03-18T10:35:32.795Z,1006.25
2019-03-18T10:36:32.795Z,1006.17
2019-03-18T10:37:32.782Z,1006.02
2019-03-18T10:38:32.774Z,1006.17
2019-03-18T10:39:32.764Z,1006.16
2019-03-18T10:40:32.759Z,1006.13
2019-03-18T10:41:32.756Z,1006.10
2019-03-18T10:42:32.744Z,1006.14
2019-03-18T10:43:32.744Z,1006.19
2019-03-18T10:44:32.731Z,1006.07
2019-03-18T10:45:32.728Z,1006.04
2019-03-18T10:46:32.721Z,1006.09
2019-03-18T10:47:32.713Z,1006.11
2019-03-18T10:48:32.704Z,1006.19
2019-03-18T10:49:44.979Z,1006.06
2019-03-18T10:50:32.692Z,1006.20
2019-03-18T10:51:32.687Z,1006.24
2019-03-18T10:52:32.684Z,1006.24
2019-03-18T10:53:32.681Z,1006.28
2019-03-18T10:54:32.671Z,1006.32
2019-03-18T10:55:32.659Z,1006.45
2019-03-18T10:56:32.653Z,1006.35
2019-03-18T10:57:32.650Z,1006.37
2019-03-18T10:58:32.656Z,1006.34
2019-03-18T10:59:32.639Z,1006.31
2019-03-18T11:00:32.628Z,1006.31
2019-03-18T11:01:32.624Z,1006.40
2019-03-18T11:02:32.617Z,1006.35
2019-03-18T11:03:32.611Z,1006.36
2019-03-18T11:04:32.603Z,1006.49
2019-03-18T11:05:32.598Z,1006.26
2019-03-18T11:06:32.590Z,1006.53
2019-03-18T11:07:32.584Z,1006.28
2019-03-18T11:08:32.578Z,1006.48
2019-03-18T11:09:32.572Z,1006.44
2019-03-18T11:10:32.566Z,1006.51
2019-03-18T11:11:32.558Z,1006.61
2019-03-18T11:12:32.551Z,1006.52
2019-03-18T11:13:32.549Z,1006.54
2019-03-18T11:14:32.540Z,1006.56
2019-03-18T11:15:32.534Z,1006.63
2019-03-18T11:16:32.526Z,1006.62
2019-03-18T11:17:32.520Z,1006.62
2019-03-18T11:18:32.513Z,1006.72
2019-03-18T11:19:32.509Z,1006.68
2019-03-18T11:20:32.499Z,1006.50
2019-03-18T11:21:32.492Z,1006.56
2019-03-18T11:22:32.486Z,1006.59
2019-03-18T11:23:32.480Z,1006.61
2019-03-18T11:24:32.472Z,1006.56
2019-03-18T11:25:32.466Z,1006.56
2019-03-18T11:26:32.460Z,1006.49
2019-03-18T11:27:32.459Z,1006.50
2019-03-18T11:28:32.446Z,1006.55
2019-03-18T11:29:32.442Z,1006.57
2019-03-18T11:30:32.436Z,1006.47
2019-03-18T11:31:32.430Z,1006.47
2019-03-18T11:32:32.422Z,1006.43
2019-03-18T11:33:32.416Z,1006.42
2019-03-18T11:34:32.419Z,1006.54
2019-03-18T11:35:32.409Z,1006.48
2019-03-18T11:36:32.399Z,1006.43
2019-03-18T11:37:32.390Z,1006.40
2019-03-18T11:38:32.385Z,1006.38
2019-03-18T11:39:32.380Z,1006.51
2019-03-18T11:40:32.374Z,1006.47
2019-03-18T11:41:32.367Z,1006.48
2019-03-18T11:42:32.360Z,1006.46
2019-03-18T11:43:32.360Z,1006.54
2019-03-18T11:44:32.347Z,1006.48
2019-03-18T11:45:32.342Z,1006.48
2019-03-18T11:46:32.338Z,1006.48
2019-03-18T11:47:32.331Z,1006.49
2019-03-18T11:48:32.323Z,1006.41
2019-03-18T11:49:39.609Z,1006.44
2019-03-18T11:50:32.319Z,1006.47
2019-03-18T11:51:32.308Z,1006.47
2019-03-18T11:52:32.871Z,1006.49
2019-03-18T11:53:32.294Z,1006.42
2019-03-18T11:54:32.386Z,1006.47
2019-03-18T11:55:32.283Z,1006.47
2019-03-18T11:56:32.278Z,1006.43
2019-03-18T11:57:32.274Z,1006.46
2019-03-18T11:58:32.264Z,1006.41
2019-03-18T11:59:32.259Z,1006.33
2019-03-18T12:00:32.270Z,1006.36
2019-03-18T12:01:32.248Z,1006.39
2019-03-18T12:02:32.240Z,1006.28
2019-03-18T12:03:32.233Z,1006.40
2019-03-18T12:04:32.906Z,1006.44
2019-03-18T12:05:32.221Z,1006.43